ミールヌイ の空港の天気 - METARとTAF

Mirny ( UERR / MJZ ) - ロシア ミールヌイ
飛行場実況気象(Metar)
観測時間10/16 02:00 YAKT (10/15 17:00 UTC)
風向・風速南南西 2m/s
視程4000m
天気現象もや
全天を覆う雲 雲底高度 30m
気温0℃
湿度100%
気圧1010hPa
METARUERR 151700Z 20002MPS 4000 BR OVC001 00/00 Q1010 R25/490337 NOSIG RMK QBB050 QFE727
過去の天気等 Google飛行場航空写真 Wunderground天気予報

過去48時間のMETAR

飛行場予報(TAF)
発表時間: 10/16 02:00 YAKT (10/15 17:00 UTC)
予報対象時間: 16日3時 YAKT ~ 17日3時 YAKT
風向・風速南南西 3m/s
視程2100m
天気現象弱いしゅう雪 もや
全天の8割程度の雲 雲底高度 90m
全天を覆う積乱雲 雲底高度 460m
16日3時 YAKT ~ 16日11時 YAKT に一時的に
視程300m
天気現象氷霧
全天を覆う雲 鉛直視程 30m
16日11時 YAKT から
風向・風速南西 3m/s 瞬間風速 8m/s
視程10km以上
全天の8割程度の積乱雲 雲底高度 370m
TAF UERR 151700Z 1518/1618 21003MPS 2100 -SHSN BR BKN003 OVC015CB
TEMPO 1518/1602 0300 FZFG VV001
FM160200 23003G08MPS 9999 BKN012CB